Tarboro, South Carolina
Current Conditions -  °F | °C
As of 10:56 PM on Saturday 20 Dec 2014 (Local Time) from KNBC Reporting Station
Overcast Overcast  
Wind Chill: 51°   Ceiling: 400
Heat Index: 51°   Visibility: 7mi
Dew Point: 49°   Wind: 9mph
Humidity: 92%   Direction: 30°NNE
Pressure: 30.22"   Gusts: NA
Location:  32.4819°N, 81.1158°W
Report Text: KNBC 210356Z AUTO 03008KT 7SM OVC004 11/09 A3022 RMK AO2 SLP233 T01060094 $
Loading
Personal Weather Stations






























Interactive Weather Map New forecast layout! Learn more

10-Day Weather Forecast

Advertisements
Track Severe Weather on mobile